Time;durP1;ratioP1;P1;durP2;ratioP2;P2;SDS_P1;SDS_P2;PMS_P1;PMS_P2;Temp;Humidity;BMP_temperature;BMP_pressure;BME280_temperature;BME280_humidity;BME280_pressure;Samples;Min_cycle;Max_cycle;Signal;HPM_P1;HPM_P2
2021/08/27 00:01:15;;;;;;;12.15;11.05;;;13.80;83.80;;;;;;4932756;29;20145;-70
2021/08/27 00:03:47;;;;;;;12.07;11.07;;;13.90;83.90;;;;;;4934889;29;20159;-71
2021/08/27 00:06:19;;;;;;;14.10;11.35;;;13.90;83.90;;;;;;4934174;29;20055;-69
2021/08/27 00:08:54;;;;;;;12.75;11.48;;;13.80;84.30;;;;;;4934881;29;20055;-69
2021/08/27 00:11:26;;;;;;;13.10;12.00;;;13.80;83.80;;;;;;4934203;29;20050;-69
2021/08/27 00:13:58;;;;;;;12.77;11.68;;;13.80;83.40;;;;;;4933600;29;20466;-70
2021/08/27 00:16:30;;;;;;;13.20;12.10;;;13.90;83.60;;;;;;4935672;29;20155;-69
2021/08/27 00:19:02;;;;;;;12.77;11.77;;;13.90;83.60;;;;;;4933301;29;20059;-70
2021/08/27 00:21:34;;;;;;;13.48;12.38;;;13.80;84.30;;;;;;4932791;29;20418;-69
2021/08/27 00:24:07;;;;;;;12.50;11.40;;;13.80;84.60;;;;;;4933411;29;20143;-69
2021/08/27 00:26:39;;;;;;;13.25;12.13;;;13.80;84.90;;;;;;4934977;29;20097;-69
2021/08/27 00:29:12;;;;;;;12.73;11.63;;;13.70;84.90;;;;;;4936937;29;20142;-70
2021/08/27 00:31:44;;;;;;;13.15;12.05;;;13.70;84.50;;;;;;4932405;29;20055;-70
2021/08/27 00:34:15;;;;;;;13.07;11.95;;;13.70;84.50;;;;;;4934012;29;20115;-70
2021/08/27 00:36:47;;;;;;;12.15;11.15;;;13.70;84.90;;;;;;4932941;29;20163;-70
2021/08/27 00:39:19;;;;;;;13.25;12.15;;;13.70;84.80;;;;;;4934218;29;20043;-69
2021/08/27 00:41:51;;;;;;;12.85;11.65;;;13.70;84.70;;;;;;4933877;29;20611;-70
2021/08/27 00:44:23;;;;;;;12.73;11.55;;;13.70;84.90;;;;;;4935214;29;20112;-70
2021/08/27 00:46:55;;;;;;;12.98;11.63;;;13.60;84.60;;;;;;4933822;29;20171;-70
2021/08/27 00:49:28;;;;;;;12.45;11.45;;;13.60;84.50;;;;;;4935452;29;20130;-70
2021/08/27 00:52:00;;;;;;;12.27;11.27;;;13.60;85.30;;;;;;4931945;29;20058;-69
2021/08/27 00:54:32;;;;;;;12.93;11.82;;;13.50;85.30;;;;;;4935052;29;20048;-70
2021/08/27 00:57:08;;;;;;;12.75;11.55;;;13.50;85.20;;;;;;4932615;29;20059;-70
2021/08/27 00:59:41;;;;;;;12.88;11.77;;;13.50;85.00;;;;;;4934191;29;20166;-69
2021/08/27 01:02:13;;;;;;;13.48;12.38;;;13.50;84.70;;;;;;4933453;29;20105;-69
2021/08/27 01:04:47;;;;;;;13.75;12.65;;;13.40;85.60;;;;;;4915199;29;20515;-69
2021/08/27 01:07:23;;;;;;;13.35;12.25;;;13.30;84.10;;;;;;4932984;29;20517;-70
2021/08/27 01:10:16;;;;;;;13.65;12.40;;;13.30;84.60;;;;;;4937057;29;20059;-70
2021/08/27 01:13:11;;;;;;;13.80;12.70;;;13.20;84.20;;;;;;4938354;29;20051;-70
2021/08/27 01:15:56;;;;;;;13.20;12.10;;;13.20;84.70;;;;;;4935555;29;20078;-70
2021/08/27 01:19:03;;;;;;;13.32;12.23;;;13.10;84.40;;;;;;4937672;29;20604;-70
2021/08/27 01:21:56;;;;;;;13.30;12.20;;;13.10;84.50;;;;;;4936696;29;20075;-69
2021/08/27 01:24:31;;;;;;;13.93;12.63;;;13.20;84.50;;;;;;4939691;29;20040;-69
2021/08/27 01:27:05;;;;;;;13.95;12.75;;;13.20;84.70;;;;;;4935902;29;20139;-69
2021/08/27 01:30:05;;;;;;;13.60;12.50;;;13.10;85.60;;;;;;4937781;29;20051;-69
2021/08/27 01:32:46;;;;;;;13.68;12.43;;;13.00;85.90;;;;;;4945027;29;20810;-69
2021/08/27 01:35:21;;;;;;;13.93;12.65;;;12.90;85.80;;;;;;4936181;29;20506;-69
2021/08/27 01:37:54;;;;;;;14.07;12.80;;;12.90;86.10;;;;;;4936932;29;20070;-69
2021/08/27 01:40:28;;;;;;;14.13;13.02;;;12.90;85.90;;;;;;4938989;29;20065;-69
2021/08/27 01:43:04;;;;;;;13.30;12.20;;;12.90;85.70;;;;;;4937292;29;20174;-69
2021/08/27 01:45:38;;;;;;;14.55;13.25;;;12.90;85.80;;;;;;4937519;29;20048;-69
2021/08/27 01:48:11;;;;;;;14.45;12.93;;;12.90;85.60;;;;;;4934494;29;20109;-70
2021/08/27 01:50:44;;;;;;;13.55;12.45;;;13.00;85.60;;;;;;4937448;29;20459;-70
2021/08/27 01:53:17;;;;;;;14.35;13.15;;;13.00;85.30;;;;;;4936356;29;20130;-69
2021/08/27 01:55:48;;;;;;;13.85;12.55;;;13.00;85.10;;;;;;4936947;29;20065;-69
2021/08/27 01:58:29;;;;;;;14.18;13.07;;;13.10;85.10;;;;;;4936317;29;20517;-69
2021/08/27 02:01:03;;;;;;;14.35;13.25;;;13.10;85.10;;;;;;4936770;29;20565;-69
2021/08/27 02:03:35;;;;;;;13.60;12.40;;;13.10;85.20;;;;;;4942856;29;20063;-69
2021/08/27 02:06:09;;;;;;;13.63;12.48;;;13.10;85.80;;;;;;4934587;29;20314;-70
2021/08/27 02:08:41;;;;;;;13.90;12.80;;;13.10;85.40;;;;;;4940504;29;20047;-70
2021/08/27 02:11:15;;;;;;;13.70;12.60;;;13.10;85.40;;;;;;4935560;29;20142;-71
2021/08/27 02:13:49;;;;;;;13.80;12.60;;;13.10;85.80;;;;;;4935669;29;20527;-70
2021/08/27 02:16:20;;;;;;;13.60;12.48;;;13.10;85.40;;;;;;4935728;29;20055;-71
2021/08/27 02:18:53;;;;;;;14.52;13.25;;;13.00;85.30;;;;;;4938200;29;20447;-68
2021/08/27 02:21:31;;;;;;;14.63;13.20;;;13.00;85.80;;;;;;4938875;29;20146;-71
2021/08/27 02:24:10;;;;;;;13.90;12.75;;;13.00;86.50;;;;;;4934364;29;20075;-71
2021/08/27 02:26:44;;;;;;;13.93;12.73;;;12.90;85.90;;;;;;4936134;29;20138;-70
2021/08/27 02:29:18;;;;;;;13.25;12.05;;;13.00;85.50;;;;;;4934616;29;20055;-71
2021/08/27 02:31:55;;;;;;;13.93;12.82;;;13.00;85.90;;;;;;4935198;29;20044;-71
2021/08/27 02:34:32;;;;;;;14.23;12.90;;;13.00;85.70;;;;;;4936701;29;20039;-70
2021/08/27 02:37:06;;;;;;;13.70;12.60;;;13.00;86.10;;;;;;4935174;29;20067;-72
2021/08/27 02:39:38;;;;;;;14.18;12.85;;;13.00;85.60;;;;;;4935405;29;20078;-71
2021/08/27 02:42:11;;;;;;;13.20;12.10;;;13.00;84.80;;;;;;4934266;29;20151;-70
2021/08/27 02:44:43;;;;;;;13.25;12.13;;;13.00;84.60;;;;;;4932890;29;20053;-70
2021/08/27 02:47:15;;;;;;;13.35;12.25;;;13.00;85.00;;;;;;4934761;29;20171;-71
2021/08/27 02:49:46;;;;;;;13.40;12.30;;;13.00;84.50;;;;;;4934697;29;20208;-71
2021/08/27 02:52:41;;;;;;;13.43;12.38;;;13.00;84.90;;;;;;4932185;29;20415;-70
2021/08/27 02:55:29;;;;;;;14.15;12.95;;;12.90;85.10;;;;;;4943413;29;20064;-71
2021/08/27 02:58:07;;;;;;;13.63;12.52;;;12.80;84.90;;;;;;4933950;29;20125;-72
2021/08/27 03:00:55;;;;;;;13.95;12.65;;;12.80;85.10;;;;;;4932523;29;20696;-71
2021/08/27 03:03:34;;;;;;;14.30;13.10;;;12.70;85.90;;;;;;4934423;29;20075;-69
2021/08/27 03:06:10;;;;;;;13.73;12.43;;;12.70;85.40;;;;;;4930287;29;20079;-69
2021/08/27 03:08:47;;;;;;;14.00;12.80;;;12.70;85.50;;;;;;4934216;29;20070;-70
2021/08/27 03:11:26;;;;;;;13.55;12.27;;;12.70;85.40;;;;;;4935214;29;20116;-70
2021/08/27 03:14:06;;;;;;;13.50;11.98;;;12.80;85.50;;;;;;4937552;29;20056;-69
2021/08/27 03:16:41;;;;;;;13.10;12.00;;;12.80;85.20;;;;;;4933161;29;20142;-70
2021/08/27 03:19:23;;;;;;;13.00;11.90;;;12.90;85.10;;;;;;4933490;29;20130;-71
2021/08/27 03:22:08;;;;;;;13.68;12.57;;;12.90;84.70;;;;;;4934031;29;20162;-71
2021/08/27 03:24:47;;;;;;;13.85;12.68;;;12.90;84.80;;;;;;4936994;29;20043;-71
2021/08/27 03:27:22;;;;;;;13.63;12.50;;;12.90;85.00;;;;;;4933227;29;20075;-69
2021/08/27 03:30:00;;;;;;;13.02;11.93;;;12.90;84.70;;;;;;4933466;29;20070;-70
2021/08/27 03:32:32;;;;;;;14.13;12.93;;;12.90;84.80;;;;;;4933505;29;20124;-70
2021/08/27 03:35:06;;;;;;;13.10;11.82;;;12.90;84.70;;;;;;4932370;29;20048;-69
2021/08/27 03:37:38;;;;;;;13.40;12.13;;;12.90;84.60;;;;;;4932169;29;20132;-70
2021/08/27 03:40:12;;;;;;;13.23;12.13;;;12.90;84.70;;;;;;4934299;29;20051;-69
2021/08/27 03:42:44;;;;;;;13.45;12.35;;;12.90;84.70;;;;;;4935533;29;20302;-69
2021/08/27 03:45:19;;;;;;;12.95;11.95;;;12.80;84.60;;;;;;4934685;29;20070;-69
2021/08/27 03:47:52;;;;;;;14.02;12.73;;;12.70;85.10;;;;;;4931744;29;20132;-70
2021/08/27 03:50:26;;;;;;;13.32;12.13;;;12.70;85.30;;;;;;4897817;29;1127027;-70
2021/08/27 03:52:59;;;;;;;14.13;13.02;;;12.70;85.20;;;;;;4933940;29;20202;-70
2021/08/27 03:55:31;;;;;;;13.50;12.30;;;12.60;84.90;;;;;;4934410;29;20043;-69
2021/08/27 03:58:03;;;;;;;13.55;12.45;;;12.70;85.00;;;;;;4933607;29;20055;-71
2021/08/27 04:00:42;;;;;;;14.52;13.32;;;12.60;84.50;;;;;;4934750;29;20071;-69
2021/08/27 04:03:14;;;;;;;13.93;12.82;;;12.60;84.50;;;;;;4933793;29;20477;-69
2021/08/27 04:06:19;;;;;;;14.60;13.25;;;12.60;84.50;;;;;;4932367;29;20056;-69
2021/08/27 04:08:51;;;;;;;15.48;14.07;;;12.60;84.40;;;;;;4927937;29;20150;-69
2021/08/27 04:11:23;;;;;;;14.63;13.32;;;12.60;84.20;;;;;;4933648;29;20071;-69
2021/08/27 04:13:54;;;;;;;14.57;13.20;;;12.50;84.20;;;;;;4933498;29;20059;-69
2021/08/27 04:16:26;;;;;;;14.57;13.48;;;12.50;84.40;;;;;;4933446;29;20058;-69
2021/08/27 04:18:58;;;;;;;14.63;13.23;;;12.50;84.40;;;;;;4933974;29;20065;-69
2021/08/27 04:21:30;;;;;;;14.55;13.35;;;12.40;84.60;;;;;;4933995;29;20128;-69
2021/08/27 04:24:02;;;;;;;14.43;13.23;;;12.40;84.50;;;;;;4933634;29;20059;-70
2021/08/27 04:26:36;;;;;;;14.70;13.38;;;12.40;84.50;;;;;;4933861;29;20132;-69
2021/08/27 04:29:13;;;;;;;14.38;13.13;;;12.30;84.50;;;;;;4934327;29;20043;-68
2021/08/27 04:31:45;;;;;;;15.05;13.75;;;12.30;84.20;;;;;;4932544;29;20058;-69
2021/08/27 04:34:17;;;;;;;14.30;13.20;;;12.30;84.40;;;;;;4933943;29;20047;-69
2021/08/27 04:36:49;;;;;;;14.85;13.70;;;12.30;84.40;;;;;;4931891;29;20430;-69
2021/08/27 04:39:21;;;;;;;15.40;14.20;;;12.30;84.10;;;;;;4932462;29;20130;-70
2021/08/27 04:41:53;;;;;;;15.93;14.52;;;12.30;84.30;;;;;;4932706;29;20051;-70
2021/08/27 04:44:25;;;;;;;14.65;13.43;;;12.30;84.40;;;;;;4936855;29;20047;-69
2021/08/27 04:46:57;;;;;;;14.93;13.60;;;12.20;84.30;;;;;;4938048;29;20094;-69
2021/08/27 04:49:29;;;;;;;14.38;13.25;;;12.20;84.60;;;;;;4937964;29;20066;-69
2021/08/27 04:52:01;;;;;;;14.80;13.43;;;12.20;84.30;;;;;;4935381;29;20067;-69
2021/08/27 04:54:33;;;;;;;14.23;13.10;;;12.20;84.30;;;;;;4936528;29;20051;-70
2021/08/27 04:57:05;;;;;;;14.50;13.30;;;12.20;84.40;;;;;;4935506;29;20069;-68
2021/08/27 04:59:42;;;;;;;14.77;13.57;;;12.10;84.60;;;;;;4936919;29;20075;-69
2021/08/27 05:02:14;;;;;;;14.40;13.10;;;12.10;84.80;;;;;;4936290;29;20629;-70
2021/08/27 05:04:47;;;;;;;12.95;11.95;;;12.10;85.00;;;;;;4935313;29;20088;-70
2021/08/27 05:07:18;;;;;;;14.38;12.98;;;12.10;85.40;;;;;;4935450;29;20127;-71
2021/08/27 05:09:50;;;;;;;13.57;12.40;;;12.10;85.40;;;;;;4936676;29;20663;-71
2021/08/27 05:12:22;;;;;;;13.75;12.40;;;12.10;85.60;;;;;;4938253;29;20092;-71
2021/08/27 05:14:55;;;;;;;13.05;11.85;;;12.10;85.40;;;;;;4935047;29;20510;-71
2021/08/27 05:17:27;;;;;;;13.77;12.68;;;12.20;85.50;;;;;;4937129;29;20130;-70
2021/08/27 05:19:59;;;;;;;13.90;12.70;;;12.20;86.70;;;;;;4935552;29;20055;-71
2021/08/27 05:22:31;;;;;;;13.63;12.38;;;12.20;85.70;;;;;;4934075;29;20679;-71
2021/08/27 05:25:03;;;;;;;13.55;12.15;;;12.20;85.40;;;;;;4934033;29;20045;-71
2021/08/27 05:27:37;;;;;;;13.30;12.15;;;12.20;85.60;;;;;;4936866;29;20042;-71
2021/08/27 05:30:11;;;;;;;13.18;12.05;;;12.20;85.30;;;;;;4936102;29;20458;-71
2021/08/27 05:32:43;;;;;;;13.02;11.93;;;12.30;85.70;;;;;;4935442;29;20074;-72
2021/08/27 05:35:15;;;;;;;13.23;12.13;;;12.30;85.50;;;;;;4937581;29;20047;-71
2021/08/27 05:37:47;;;;;;;14.45;13.15;;;12.30;85.30;;;;;;4936385;29;20125;-72
2021/08/27 05:40:19;;;;;;;14.38;12.85;;;12.30;85.40;;;;;;4930519;29;20127;-70
2021/08/27 05:42:51;;;;;;;14.45;12.95;;;12.30;85.30;;;;;;4932524;29;20141;-72
2021/08/27 05:45:23;;;;;;;14.30;13.10;;;12.30;86.30;;;;;;4931516;29;20491;-71
2021/08/27 05:47:55;;;;;;;14.18;12.95;;;12.40;85.50;;;;;;4931947;29;20487;-72
2021/08/27 05:50:27;;;;;;;13.88;12.73;;;12.40;85.50;;;;;;4932198;29;20059;-72
2021/08/27 05:53:01;;;;;;;13.35;12.15;;;12.50;86.00;;;;;;4933655;29;20052;-72
2021/08/27 05:55:33;;;;;;;13.50;12.40;;;12.50;85.50;;;;;;4933092;29;20055;-73
2021/08/27 05:58:04;;;;;;;14.85;13.65;;;12.50;85.60;;;;;;4932004;29;20055;-71
2021/08/27 06:00:36;;;;;;;14.68;13.27;;;12.50;85.70;;;;;;4932401;29;20066;-72
2021/08/27 06:03:09;;;;;;;13.77;12.57;;;12.60;85.70;;;;;;4933540;29;20066;-73
2021/08/27 06:05:41;;;;;;;13.80;12.55;;;12.60;85.50;;;;;;4931819;29;20058;-71
2021/08/27 06:08:12;;;;;;;14.32;13.10;;;12.70;85.80;;;;;;4933861;29;20676;-71
2021/08/27 06:10:44;;;;;;;13.60;12.48;;;12.70;85.00;;;;;;4933355;29;20054;-71
2021/08/27 06:13:16;;;;;;;13.57;12.35;;;12.70;85.60;;;;;;4935633;29;20075;-72
2021/08/27 06:15:48;;;;;;;14.27;13.05;;;12.70;84.90;;;;;;4932547;29;20074;-72
2021/08/27 06:18:20;;;;;;;14.13;12.93;;;12.80;84.70;;;;;;4935143;29;20447;-71
2021/08/27 06:20:52;;;;;;;14.20;13.00;;;12.80;84.90;;;;;;4932149;29;20502;-71
2021/08/27 06:23:24;;;;;;;14.25;13.05;;;12.90;85.00;;;;;;4933679;29;20054;-71
2021/08/27 06:25:56;;;;;;;14.10;12.90;;;13.00;84.90;;;;;;4933942;29;20136;-70
2021/08/27 06:28:28;;;;;;;14.10;13.00;;;13.10;84.80;;;;;;4936930;29;20126;-71
2021/08/27 06:30:59;;;;;;;14.25;13.05;;;13.10;84.80;;;;;;4933470;29;20051;-70
2021/08/27 06:33:32;;;;;;;14.38;13.23;;;13.20;84.60;;;;;;4933981;29;20518;-70
2021/08/27 06:36:05;;;;;;;14.20;13.00;;;13.20;84.30;;;;;;4932441;29;20051;-69
2021/08/27 06:38:37;;;;;;;15.00;13.65;;;13.30;84.00;;;;;;4935069;29;20112;-71
2021/08/27 06:41:09;;;;;;;14.27;13.07;;;13.40;84.10;;;;;;4934402;29;20139;-71
2021/08/27 06:43:43;;;;;;;14.63;13.38;;;13.40;83.80;;;;;;4935249;29;20054;-70
2021/08/27 06:46:21;;;;;;;14.10;12.90;;;13.50;84.30;;;;;;4936877;29;20426;-71
2021/08/27 06:48:54;;;;;;;14.85;13.57;;;13.60;83.80;;;;;;4935307;29;20043;-70
2021/08/27 06:51:27;;;;;;;14.82;13.52;;;13.60;83.30;;;;;;4933865;29;20160;-71
2021/08/27 06:53:59;;;;;;;15.65;14.35;;;13.70;82.90;;;;;;4934991;29;20595;-70
2021/08/27 06:56:33;;;;;;;15.40;14.10;;;13.90;82.80;;;;;;4932651;29;20442;-70
2021/08/27 06:59:05;;;;;;;15.65;14.25;;;14.00;83.70;;;;;;4936393;29;20167;-70
2021/08/27 07:01:37;;;;;;;15.98;14.50;;;14.10;82.40;;;;;;4933862;29;20130;-71
2021/08/27 07:04:09;;;;;;;15.93;14.52;;;14.20;83.50;;;;;;4933954;29;20072;-71
2021/08/27 07:06:41;;;;;;;15.65;14.25;;;14.30;83.20;;;;;;4933559;29;20448;-71
2021/08/27 07:09:13;;;;;;;15.73;14.32;;;14.40;82.50;;;;;;4934099;29;20483;-71
2021/08/27 07:11:45;;;;;;;16.10;14.70;;;14.50;81.90;;;;;;4932982;29;20059;-72
2021/08/27 07:14:17;;;;;;;16.27;14.88;;;14.50;81.40;;;;;;4934569;29;20166;-71
2021/08/27 07:16:48;;;;;;;15.38;14.02;;;14.50;81.60;;;;;;4934193;29;20055;-71
2021/08/27 07:19:20;;;;;;;15.38;13.82;;;14.50;81.00;;;;;;4936009;29;20699;-72
2021/08/27 07:21:52;;;;;;;15.02;13.82;;;14.50;81.50;;;;;;4933775;29;20055;-71
2021/08/27 07:24:24;;;;;;;16.83;15.23;;;14.50;81.70;;;;;;4935540;29;21114;-70
2021/08/27 07:26:56;;;;;;;15.57;14.10;;;14.50;81.60;;;;;;4932650;29;20048;-71
2021/08/27 07:29:28;;;;;;;16.17;14.30;;;14.60;81.60;;;;;;4933867;29;20171;-71
2021/08/27 07:32:00;;;;;;;16.13;14.65;;;14.60;80.70;;;;;;4931969;29;20055;-71
2021/08/27 07:34:32;;;;;;;14.90;13.50;;;14.60;80.60;;;;;;4935174;29;20128;-71
2021/08/27 07:37:04;;;;;;;15.82;14.32;;;14.60;79.90;;;;;;4932998;29;20136;-70
2021/08/27 07:39:36;;;;;;;15.90;14.50;;;14.70;79.00;;;;;;4934733;29;20134;-70
2021/08/27 07:42:09;;;;;;;16.02;14.63;;;14.70;79.90;;;;;;4932386;29;20071;-71
2021/08/27 07:44:41;;;;;;;15.88;14.57;;;14.90;80.40;;;;;;4934297;29;20586;-71
2021/08/27 07:47:13;;;;;;;15.77;14.43;;;15.00;81.70;;;;;;4931049;29;20051;-70
2021/08/27 07:49:44;;;;;;;15.40;14.05;;;15.10;81.50;;;;;;4934025;29;20054;-71
2021/08/27 07:52:16;;;;;;;15.80;14.38;;;15.20;80.70;;;;;;4932319;29;20662;-72
2021/08/27 07:54:48;;;;;;;15.85;14.55;;;15.20;80.10;;;;;;4934717;29;20055;-71
2021/08/27 07:57:20;;;;;;;15.73;14.43;;;15.30;79.00;;;;;;4930272;29;20122;-72
2021/08/27 07:59:52;;;;;;;15.52;14.13;;;15.40;79.90;;;;;;4933355;29;20465;-72
2021/08/27 08:02:24;;;;;;;16.15;14.57;;;15.40;79.50;;;;;;4936268;29;20071;-72
2021/08/27 08:04:56;;;;;;;15.82;14.40;;;15.50;79.20;;;;;;4932640;29;20056;-71
2021/08/27 08:07:28;;;;;;;16.05;14.65;;;15.50;79.50;;;;;;4931567;29;20104;-71
2021/08/27 08:10:00;;;;;;;15.55;14.20;;;15.50;79.70;;;;;;4933859;29;20418;-71
2021/08/27 08:12:33;;;;;;;14.88;13.45;;;15.50;77.10;;;;;;4932965;29;20130;-72
2021/08/27 08:15:05;;;;;;;15.10;13.68;;;15.50;77.50;;;;;;4935513;29;20131;-71
2021/08/27 08:17:37;;;;;;;14.40;13.10;;;15.50;77.70;;;;;;4932121;29;20051;-71
2021/08/27 08:20:10;;;;;;;15.00;13.80;;;15.50;78.20;;;;;;4932371;29;20128;-71
2021/08/27 08:22:41;;;;;;;15.68;14.00;;;15.50;78.80;;;;;;4932428;29;20890;-71
2021/08/27 08:25:13;;;;;;;14.68;13.13;;;15.50;79.20;;;;;;4932386;29;20052;-71
2021/08/27 08:27:45;;;;;;;15.25;13.75;;;15.50;79.20;;;;;;4933315;29;20070;-71
2021/08/27 08:30:18;;;;;;;14.73;13.35;;;15.50;77.80;;;;;;4930670;29;20470;-72
2021/08/27 08:32:50;;;;;;;14.68;13.38;;;15.50;78.80;;;;;;4933031;29;20143;-70
2021/08/27 08:35:22;;;;;;;14.95;13.45;;;15.50;79.30;;;;;;4933992;29;20062;-71
2021/08/27 08:37:54;;;;;;;14.15;12.85;;;15.50;78.50;;;;;;4934098;29;20063;-71
2021/08/27 08:40:27;;;;;;;14.60;13.10;;;15.40;79.10;;;;;;4932536;29;20405;-71
2021/08/27 08:42:59;;;;;;;14.50;13.20;;;15.40;79.70;;;;;;4932996;29;20048;-70
2021/08/27 08:45:31;;;;;;;14.52;13.20;;;15.40;78.30;;;;;;4932720;29;20048;-70
2021/08/27 08:48:05;;;;;;;13.80;12.60;;;15.40;78.70;;;;;;4932403;29;20053;-70
2021/08/27 08:50:39;;;;;;;14.73;13.43;;;15.30;79.10;;;;;;4931353;29;20051;-71
2021/08/27 08:53:12;;;;;;;15.18;13.88;;;15.30;79.20;;;;;;4933274;29;20139;-70
2021/08/27 08:55:44;;;;;;;15.00;13.60;;;15.40;79.70;;;;;;4930986;29;20059;-70
2021/08/27 08:58:17;;;;;;;14.75;13.43;;;15.30;79.70;;;;;;4933519;29;20071;-70
2021/08/27 09:00:49;;;;;;;14.45;12.98;;;15.40;79.20;;;;;;4934033;29;20185;-71
2021/08/27 09:03:21;;;;;;;14.25;12.95;;;15.40;79.10;;;;;;4931873;29;20058;-70
2021/08/27 09:05:53;;;;;;;15.10;13.70;;;15.50;80.40;;;;;;4930279;29;20147;-70
2021/08/27 09:08:38;;;;;;;15.10;13.70;;;15.60;79.00;;;;;;4933761;29;20514;-69
2021/08/27 09:11:21;;;;;;;14.57;13.27;;;15.70;79.40;;;;;;4937515;29;20146;-71
2021/08/27 09:13:59;;;;;;;14.68;13.38;;;15.80;77.80;;;;;;4932481;29;20052;-70
2021/08/27 09:16:34;;;;;;;13.90;12.70;;;15.90;78.90;;;;;;4932242;29;20136;-72
2021/08/27 09:19:06;;;;;;;14.32;12.90;;;16.00;78.70;;;;;;4945168;29;20051;-71
2021/08/27 09:21:50;;;;;;;14.38;13.07;;;16.00;77.90;;;;;;4932677;29;20455;-70
2021/08/27 09:24:25;;;;;;;14.15;12.85;;;15.90;77.60;;;;;;4934244;29;20157;-70
2021/08/27 09:27:01;;;;;;;14.68;13.27;;;15.90;77.20;;;;;;4931701;29;20059;-70
2021/08/27 09:29:44;;;;;;;14.48;13.18;;;15.90;76.80;;;;;;4934889;29;20241;-69
2021/08/27 09:32:28;;;;;;;14.05;12.75;;;15.90;76.30;;;;;;4934884;29;20134;-71
2021/08/27 09:35:07;;;;;;;14.60;13.20;;;15.90;76.50;;;;;;4935741;29;20071;-70
2021/08/27 09:37:46;;;;;;;14.57;13.17;;;15.80;75.40;;;;;;4935033;29;20125;-70
2021/08/27 09:40:27;;;;;;;15.07;13.55;;;15.80;76.20;;;;;;4935625;29;20691;-70
2021/08/27 09:43:00;;;;;;;14.48;13.07;;;15.80;76.70;;;;;;4935267;29;21139;-70
2021/08/27 09:45:46;;;;;;;14.00;12.68;;;15.80;76.50;;;;;;4935754;29;20047;-71
2021/08/27 09:48:18;;;;;;;13.73;12.40;;;15.80;75.80;;;;;;4936221;29;20063;-71
2021/08/27 09:50:50;;;;;;;14.10;12.80;;;15.90;76.50;;;;;;4935690;29;20162;-70
2021/08/27 09:53:22;;;;;;;14.45;12.98;;;16.00;75.30;;;;;;4934319;29;20579;-71
2021/08/27 09:56:00;;;;;;;14.48;13.18;;;16.00;74.80;;;;;;4937140;29;20051;-71
2021/08/27 09:58:50;;;;;;;13.68;12.43;;;16.00;74.00;;;;;;4934296;29;20679;-72
2021/08/27 10:01:22;;;;;;;14.18;12.98;;;15.90;75.70;;;;;;4935245;29;20128;-71
2021/08/27 10:04:05;;;;;;;14.23;12.82;;;15.80;75.80;;;;;;4935009;29;20150;-71
2021/08/27 10:06:38;;;;;;;15.00;13.57;;;15.60;75.60;;;;;;4935161;29;20054;-72
2021/08/27 10:09:10;;;;;;;15.10;13.60;;;15.50;76.70;;;;;;4932879;29;20101;-71
2021/08/27 10:11:43;;;;;;;14.98;13.68;;;15.40;77.00;;;;;;4935210;29;20123;-71
2021/08/27 10:14:15;;;;;;;15.23;13.57;;;15.30;77.80;;;;;;4933005;29;20417;-71
2021/08/27 10:16:47;;;;;;;14.32;13.13;;;15.30;77.90;;;;;;4933064;29;20138;-71
2021/08/27 10:19:19;;;;;;;14.98;13.52;;;15.20;78.10;;;;;;4934774;29;20727;-71
2021/08/27 10:21:52;;;;;;;14.45;13.15;;;15.20;78.30;;;;;;4932222;29;20048;-71
2021/08/27 10:24:24;;;;;;;15.02;13.45;;;15.20;78.90;;;;;;4935157;29;20126;-69
2021/08/27 10:26:56;;;;;;;16.98;15.27;;;15.10;78.10;;;;;;4934847;29;20074;-70
2021/08/27 10:29:28;;;;;;;14.25;12.95;;;15.10;79.00;;;;;;4933429;29;20061;-71
2021/08/27 10:32:00;;;;;;;14.18;12.93;;;15.00;78.40;;;;;;4935397;29;20434;-71
2021/08/27 10:34:40;;;;;;;14.40;13.10;;;15.10;78.00;;;;;;4934348;29;20507;-71
2021/08/27 10:37:44;;;;;;;13.25;11.95;;;15.20;78.10;;;;;;4933813;29;20054;-70
2021/08/27 10:40:37;;;;;;;15.05;13.52;;;15.10;77.40;;;;;;4932221;29;20118;-71
2021/08/27 10:43:09;;;;;;;14.48;13.20;;;15.20;77.80;;;;;;4935702;29;20572;-70
2021/08/27 10:45:47;;;;;;;16.13;14.63;;;15.20;77.90;;;;;;4934645;29;20058;-70
2021/08/27 10:48:24;;;;;;;14.00;12.80;;;15.30;78.90;;;;;;4933709;29;20043;-71
2021/08/27 10:50:57;;;;;;;14.98;13.35;;;15.30;77.10;;;;;;4933788;29;20048;-72
2021/08/27 10:53:35;;;;;;;14.25;12.95;;;15.40;77.00;;;;;;4933986;29;20073;-71
2021/08/27 10:56:40;;;;;;;13.90;12.60;;;15.40;76.30;;;;;;4925856;29;20096;-71
2021/08/27 10:59:14;;;;;;;13.63;12.43;;;15.40;77.90;;;;;;4933295;29;20051;-71
2021/08/27 11:01:58;;;;;;;13.63;12.30;;;15.50;77.50;;;;;;4932755;29;20507;-70
2021/08/27 11:04:40;;;;;;;13.52;12.40;;;15.50;77.00;;;;;;4932350;29;20150;-72
2021/08/27 11:07:15;;;;;;;13.52;12.32;;;15.50;76.70;;;;;;4934302;29;20074;-71
2021/08/27 11:10:10;;;;;;;13.48;12.30;;;15.50;75.40;;;;;;4934632;29;20108;-71
2021/08/27 11:13:00;;;;;;;13.23;12.20;;;15.50;75.80;;;;;;4935953;29;20136;-71
2021/08/27 11:15:33;;;;;;;14.77;13.48;;;15.50;76.20;;;;;;4933097;29;20120;-72
2021/08/27 11:18:22;;;;;;;14.52;13.23;;;15.50;76.40;;;;;;4935079;29;20766;-71
2021/08/27 11:20:54;;;;;;;15.00;13.55;;;15.60;77.20;;;;;;4931727;29;20380;-72
2021/08/27 11:23:53;;;;;;;14.85;13.43;;;15.60;77.70;;;;;;4936236;29;20656;-72
2021/08/27 11:26:40;;;;;;;15.38;13.98;;;15.70;78.10;;;;;;4932325;29;20562;-72
2021/08/27 11:29:42;;;;;;;14.50;13.23;;;15.70;77.50;;;;;;4935759;29;20080;-72
2021/08/27 11:32:17;;;;;;;14.60;13.43;;;15.70;77.00;;;;;;4932607;29;20084;-72
2021/08/27 11:35:05;;;;;;;16.02;14.32;;;15.80;77.00;;;;;;4935490;29;20786;-73
2021/08/27 11:37:41;;;;;;;15.00;13.52;;;15.70;77.40;;;;;;4933494;29;20052;-71
2021/08/27 11:40:14;;;;;;;16.15;14.75;;;15.80;76.90;;;;;;4932178;29;20105;-72
2021/08/27 11:42:47;;;;;;;14.52;13.13;;;15.70;78.00;;;;;;4935351;29;20051;-71
2021/08/27 11:45:21;;;;;;;15.38;13.98;;;15.80;78.80;;;;;;4931528;29;20158;-72
2021/08/27 11:47:58;;;;;;;14.90;13.43;;;15.70;77.50;;;;;;4938105;29;20047;-72
2021/08/27 11:50:39;;;;;;;15.52;14.20;;;15.80;78.40;;;;;;4932401;29;20063;-73
2021/08/27 11:53:11;;;;;;;13.70;12.40;;;15.90;78.30;;;;;;4937910;29;20460;-72
2021/08/27 11:55:45;;;;;;;14.88;13.52;;;16.00;76.60;;;;;;4929447;29;20145;-74
2021/08/27 11:58:17;;;;;;;13.73;12.52;;;16.20;76.90;;;;;;4934565;29;20158;-73
2021/08/27 12:00:49;;;;;;;14.57;13.27;;;16.30;74.20;;;;;;4934009;29;20082;-73
2021/08/27 12:03:29;;;;;;;14.30;13.10;;;16.50;75.20;;;;;;4933653;29;20484;-73
2021/08/27 12:06:17;;;;;;;14.63;13.32;;;16.60;72.20;;;;;;4930774;29;20044;-72
2021/08/27 12:08:50;;;;;;;15.27;13.98;;;16.80;73.40;;;;;;4933513;29;20118;-73
2021/08/27 12:11:29;;;;;;;14.27;13.05;;;16.90;73.70;;;;;;4931001;29;20071;-72
2021/08/27 12:14:01;;;;;;;14.53;13.23;;;16.90;71.20;;;;;;4933128;29;20071;-73
2021/08/27 12:16:33;;;;;;;15.20;13.88;;;16.80;73.40;;;;;;4931596;29;20053;-73
2021/08/27 12:19:24;;;;;;;16.05;14.55;;;16.70;71.80;;;;;;4935165;29;20055;-71
2021/08/27 12:22:02;;;;;;;14.32;13.05;;;16.60;73.80;;;;;;4933895;29;20138;-71
2021/08/27 12:24:34;;;;;;;14.10;12.93;;;16.60;72.80;;;;;;4931205;29;20047;-71
2021/08/27 12:27:06;;;;;;;13.32;12.23;;;16.50;74.40;;;;;;4930087;29;20143;-71
2021/08/27 12:29:39;;;;;;;13.52;12.15;;;16.30;71.10;;;;;;4935006;29;20122;-70
2021/08/27 12:32:18;;;;;;;13.00;11.90;;;16.10;71.10;;;;;;4931785;29;20071;-72
2021/08/27 12:34:50;;;;;;;13.10;12.00;;;16.10;72.30;;;;;;4932957;29;20121;-73
2021/08/27 12:37:22;;;;;;;12.32;11.38;;;16.00;72.20;;;;;;4934164;29;20060;-71
2021/08/27 12:39:54;;;;;;;12.00;11.10;;;16.10;73.10;;;;;;4934396;29;20082;-72
2021/08/27 12:42:26;;;;;;;11.57;10.68;;;16.10;73.60;;;;;;4930787;29;20054;-71
2021/08/27 12:45:01;;;;;;;12.02;10.93;;;16.10;73.20;;;;;;4934438;29;20083;-72
2021/08/27 12:47:36;;;;;;;13.15;12.15;;;16.10;73.50;;;;;;4931520;29;20122;-71
2021/08/27 12:50:14;;;;;;;12.80;11.70;;;16.20;73.70;;;;;;4931535;29;20459;-71
2021/08/27 12:53:05;;;;;;;12.65;11.55;;;16.20;73.90;;;;;;4933226;29;20888;-71
2021/08/27 12:55:37;;;;;;;12.43;11.43;;;16.10;74.30;;;;;;4930350;29;20174;-70
2021/08/27 12:58:09;;;;;;;12.18;11.18;;;16.10;75.60;;;;;;4930090;29;20051;-71
2021/08/27 13:00:41;;;;;;;12.10;11.10;;;16.00;75.20;;;;;;4932409;29;20118;-71
2021/08/27 13:03:15;;;;;;;12.15;11.15;;;16.00;75.10;;;;;;4932851;29;20422;-72
2021/08/27 13:05:50;;;;;;;12.30;11.30;;;16.00;74.80;;;;;;4936981;29;20051;-71